Terminal Aerodrome Forecast
Issued by NWS Sterling, VA

Current Version | Previous Version | Graphics & Text | Print | Product List | Glossary On
Versions: 1 2 3 4 5 6 7 8 9 10 11 12 13 14 15 16 17 18 19 20 21 22 23
390
FTUS41 KLWX 271440 AAA
TAFDCA
TAF AMD
KDCA 271440Z 2715/2812 20009KT P6SM BKN100 OVC200
     FM271800 20008KT P6SM OVC080
     FM280500 17004KT P6SM BKN100=

USA.gov is the U.S. government's official web portal to all federal, state and local government web resources and services.